Time;durP1;ratioP1;P1;durP2;ratioP2;P2;SDS_P1;SDS_P2;PMS_P1;PMS_P2;Temp;Humidity;BMP_temperature;BMP_pressure;BME280_temperature;BME280_humidity;BME280_pressure;Samples;Min_cycle;Max_cycle;Signal;HPM_P1;HPM_P2
2021/12/23 00:00:11;;;;;;;26.83;13.68;;;0.10;1.00;;;;;;5097513;28;20493;-81
2021/12/23 00:02:38;;;;;;;25.00;11.82;;;0.00;1.00;;;;;;5097580;28;20429;-81
2021/12/23 00:05:05;;;;;;;25.83;12.65;;;0.00;1.00;;;;;;5097686;28;20463;-80
2021/12/23 00:07:31;;;;;;;25.00;12.98;;;0.00;1.00;;;;;;5097529;28;20020;-81
2021/12/23 00:12:22;;;;;;;25.48;11.80;;;0.10;1.00;;;;;;5097912;28;20349;-81
2021/12/23 00:14:50;;;;;;;26.20;13.48;;;0.10;1.00;;;;;;5079580;28;20499;-81
2021/12/23 00:17:39;;;;;;;25.83;12.90;;;0.10;1.00;;;;;;5077703;28;20021;-81
2021/12/23 00:25:15;;;;;;;27.95;13.27;;;0.10;1.00;;;;;;5076776;28;20027;-80
2021/12/23 00:27:40;;;;;;;26.52;13.05;;;0.10;1.00;;;;;;5076748;28;20025;-80
2021/12/23 00:30:07;;;;;;;21.58;11.90;;;0.10;1.00;;;;;;5076954;28;20396;-81
2021/12/23 00:32:33;;;;;;;24.38;12.05;;;0.20;1.00;;;;;;5076505;28;20070;-80
2021/12/23 00:34:58;;;;;;;24.33;12.98;;;0.10;1.00;;;;;;5076673;28;20024;-80
2021/12/23 00:37:24;;;;;;;23.65;12.48;;;0.00;99.90;;;;;;5077244;28;20028;-80
2021/12/23 00:39:50;;;;;;;22.35;11.68;;;0.00;99.90;;;;;;5076924;28;20020;-80
2021/12/23 00:42:15;;;;;;;27.50;12.48;;;0.00;99.90;;;;;;5076496;28;20104;-80
2021/12/23 00:44:45;;;;;;;24.50;12.63;;;0.10;1.00;;;;;;5076268;28;20455;-80
2021/12/23 00:47:11;;;;;;;22.10;11.65;;;0.00;99.90;;;;;;5076118;28;20096;-81
2021/12/23 00:49:37;;;;;;;25.88;12.65;;;0.00;99.90;;;;;;5076003;28;20036;-81
2021/12/23 00:52:05;;;;;;;22.70;11.88;;;0.00;99.90;;;;;;5075997;28;20037;-81
2021/12/23 00:54:30;;;;;;;22.13;12.25;;;0.00;99.90;;;;;;5076258;28;20024;-81
2021/12/23 00:56:56;;;;;;;19.92;11.15;;;0.10;99.90;;;;;;5076007;28;20036;-81
2021/12/23 00:59:21;;;;;;;27.55;13.57;;;0.10;99.90;;;;;;5076214;28;20026;-81
2021/12/23 01:01:47;;;;;;;23.13;13.05;;;0.00;99.90;;;;;;5075863;28;20024;-81
2021/12/23 01:04:13;;;;;;;26.92;12.85;;;0.00;99.90;;;;;;5075557;28;20020;-80
2021/12/23 01:06:39;;;;;;;25.40;12.95;;;0.00;99.90;;;;;;5076105;28;20052;-81
2021/12/23 01:09:05;;;;;;;24.33;12.10;;;0.00;99.90;;;;;;5074737;28;20078;-80
2021/12/23 01:11:31;;;;;;;21.13;9.43;;;0.00;99.90;;;;;;5075966;28;20047;-81
2021/12/23 01:14:26;;;;;;;24.00;11.75;;;0.00;99.90;;;;;;5058144;28;20107;-80
2021/12/23 01:19:22;;;;;;;27.85;12.65;;;0.00;99.90;;;;;;5076386;28;20488;-80
2021/12/23 01:21:47;;;;;;;26.50;12.57;;;0.00;99.90;;;;;;5075896;28;20078;-81
2021/12/23 01:24:13;;;;;;;22.48;12.02;;;0.00;99.90;;;;;;5075703;28;20700;-81
2021/12/23 01:26:40;;;;;;;24.50;12.00;;;0.00;99.90;;;;;;5075381;28;20495;-81
2021/12/23 01:29:05;;;;;;;23.17;12.15;;;0.00;1.00;;;;;;5075514;28;20020;-81
2021/12/23 01:31:32;;;;;;;22.55;11.65;;;0.00;99.90;;;;;;5075394;28;20032;-81
2021/12/23 01:33:59;;;;;;;21.05;10.98;;;0.00;99.90;;;;;;5075462;28;20020;-81
2021/12/23 01:36:25;;;;;;;21.20;12.15;;;0.00;99.90;;;;;;5075517;28;20468;-80
2021/12/23 01:38:52;;;;;;;24.88;11.82;;;0.00;99.90;;;;;;5076034;28;20582;-80
2021/12/23 01:41:18;;;;;;;23.05;11.82;;;0.00;99.90;;;;;;5075608;28;20028;-80
2021/12/23 01:43:43;;;;;;;23.40;11.63;;;-0.10;1.00;;;;;;5081011;28;20538;-80
2021/12/23 01:46:09;;;;;;;22.83;12.35;;;0.00;1.00;;;;;;5095152;28;20130;-81
2021/12/23 01:48:35;;;;;;;21.98;11.45;;;0.00;1.00;;;;;;5095539;28;20062;-80
2021/12/23 01:51:02;;;;;;;21.15;11.13;;;0.00;99.90;;;;;;5094858;28;20059;-81
2021/12/23 01:53:27;;;;;;;26.05;12.43;;;0.00;99.90;;;;;;5095112;28;20099;-80
2021/12/23 01:55:53;;;;;;;23.10;12.32;;;0.00;99.90;;;;;;5095292;28;20129;-80
2021/12/23 01:58:19;;;;;;;24.77;13.63;;;0.00;99.90;;;;;;5095513;28;20357;-80
2021/12/23 02:00:50;;;;;;;25.92;13.18;;;0.00;99.90;;;;;;5095359;28;20055;-80
2021/12/23 02:03:16;;;;;;;23.17;12.25;;;0.00;99.90;;;;;;5094947;28;20075;-80
2021/12/23 02:06:10;;;;;;;24.23;12.20;;;0.00;99.90;;;;;;5094749;28;20074;-81
2021/12/23 02:08:37;;;;;;;22.63;11.68;;;0.10;99.90;;;;;;5074702;28;20107;-80
2021/12/23 02:11:10;;;;;;;25.25;12.20;;;0.00;99.90;;;;;;5074802;28;20088;-80
2021/12/23 02:13:38;;;;;;;21.30;11.68;;;0.10;99.90;;;;;;5077718;28;20025;-81
2021/12/23 02:16:04;;;;;;;25.00;11.77;;;0.00;99.90;;;;;;5094292;28;20059;-80
2021/12/23 02:18:30;;;;;;;21.08;12.48;;;0.10;99.90;;;;;;5095457;28;20012;-80
2021/12/23 02:20:57;;;;;;;22.10;11.32;;;0.10;99.90;;;;;;5095041;28;20085;-80
2021/12/23 02:23:24;;;;;;;26.90;12.40;;;0.10;99.90;;;;;;5094580;28;20058;-80
2021/12/23 02:25:49;;;;;;;25.92;12.80;;;0.20;99.90;;;;;;5094446;28;20019;-80
2021/12/23 02:28:20;;;;;;;25.58;12.70;;;0.10;99.90;;;;;;5094710;28;20031;-80
2021/12/23 02:30:53;;;;;;;22.30;11.38;;;0.10;99.90;;;;;;5087187;28;20025;-81
2021/12/23 02:33:21;;;;;;;22.08;12.40;;;0.20;99.90;;;;;;5074427;28;20029;-80
2021/12/23 02:35:47;;;;;;;20.27;11.52;;;0.10;99.90;;;;;;5074141;28;20024;-80
2021/12/23 02:38:38;;;;;;;19.63;11.15;;;0.10;99.90;;;;;;5074462;28;20017;-81
2021/12/23 02:41:03;;;;;;;22.48;11.95;;;0.10;99.90;;;;;;5074722;28;20104;-80
2021/12/23 02:43:29;;;;;;;22.13;12.05;;;0.20;99.90;;;;;;5073762;28;20080;-81
2021/12/23 02:45:58;;;;;;;24.10;13.13;;;0.10;99.90;;;;;;5074260;28;20025;-81
2021/12/23 02:48:27;;;;;;;22.15;11.95;;;0.20;99.90;;;;;;5073824;28;20383;-80
2021/12/23 02:50:54;;;;;;;26.27;12.77;;;0.20;99.90;;;;;;5073972;28;20107;-81
2021/12/23 02:53:20;;;;;;;22.33;11.63;;;0.20;99.90;;;;;;5078899;28;20032;-80
2021/12/23 02:55:47;;;;;;;26.17;13.13;;;0.20;99.90;;;;;;5094050;28;20066;-81
2021/12/23 02:58:12;;;;;;;23.92;12.23;;;0.20;99.90;;;;;;5094223;28;20024;-80
2021/12/23 03:00:40;;;;;;;25.25;10.38;;;0.20;99.90;;;;;;5094423;28;20070;-80
2021/12/23 03:03:05;;;;;;;25.60;12.63;;;0.10;99.90;;;;;;5094228;28;20028;-80
2021/12/23 03:05:31;;;;;;;24.80;12.07;;;0.10;99.90;;;;;;5094228;28;20036;-81
2021/12/23 03:07:58;;;;;;;21.48;11.68;;;0.20;99.90;;;;;;5094171;28;20064;-81
2021/12/23 03:10:24;;;;;;;24.98;12.88;;;0.20;99.90;;;;;;5094679;28;20460;-80
2021/12/23 03:12:51;;;;;;;22.08;12.60;;;0.20;99.90;;;;;;5094135;28;20062;-81
2021/12/23 03:15:16;;;;;;;24.02;12.02;;;0.20;99.90;;;;;;5094143;28;20153;-81
2021/12/23 03:17:42;;;;;;;26.55;13.02;;;0.20;99.90;;;;;;5094315;28;20044;-80
2021/12/23 03:20:08;;;;;;;25.33;11.82;;;0.20;99.90;;;;;;5094175;28;20103;-80
2021/12/23 03:22:34;;;;;;;22.00;12.48;;;0.20;99.90;;;;;;5094372;28;20169;-80
2021/12/23 03:24:59;;;;;;;22.27;11.93;;;0.40;99.90;;;;;;5093760;28;20077;-80
2021/12/23 03:27:25;;;;;;;26.10;11.95;;;0.20;99.90;;;;;;5094855;28;20031;-81
2021/12/23 03:29:51;;;;;;;25.80;12.75;;;0.30;99.90;;;;;;5079784;28;20020;-81
2021/12/23 03:32:17;;;;;;;24.25;12.73;;;0.40;99.90;;;;;;5097836;28;20045;-80
2021/12/23 03:34:43;;;;;;;22.48;12.23;;;0.30;99.90;;;;;;5097877;28;20036;-80
2021/12/23 03:37:09;;;;;;;26.33;12.57;;;0.30;99.90;;;;;;5097742;28;20020;-80
2021/12/23 03:39:35;;;;;;;23.52;11.88;;;0.30;99.90;;;;;;5098046;28;20030;-80
2021/12/23 03:42:00;;;;;;;20.60;11.32;;;0.30;99.90;;;;;;5097656;28;20036;-81
2021/12/23 03:44:26;;;;;;;24.30;12.10;;;0.30;99.90;;;;;;5097673;28;20054;-81
2021/12/23 03:46:51;;;;;;;24.67;13.05;;;0.30;99.90;;;;;;5097218;28;20024;-81
2021/12/23 03:49:17;;;;;;;24.33;13.40;;;0.30;99.90;;;;;;5097392;28;20031;-80
2021/12/23 03:51:42;;;;;;;22.45;11.77;;;0.30;99.90;;;;;;5097096;28;20028;-81
2021/12/23 03:54:08;;;;;;;22.38;12.18;;;0.30;99.90;;;;;;5096993;28;20692;-81
2021/12/23 03:56:34;;;;;;;22.92;12.38;;;0.30;99.90;;;;;;5097354;28;20533;-81
2021/12/23 03:58:59;;;;;;;23.13;12.48;;;0.30;99.90;;;;;;5097342;28;20150;-81
2021/12/23 04:01:27;;;;;;;25.30;12.43;;;0.40;99.90;;;;;;5096969;28;20032;-81
2021/12/23 04:03:53;;;;;;;27.35;12.30;;;0.30;99.90;;;;;;5097423;28;20028;-81
2021/12/23 04:06:21;;;;;;;28.13;13.13;;;0.30;99.90;;;;;;5096876;28;20422;-81
2021/12/23 04:08:47;;;;;;;20.80;10.82;;;0.30;99.90;;;;;;5097143;28;20020;-81
2021/12/23 04:11:13;;;;;;;25.90;13.25;;;0.40;99.90;;;;;;5096735;28;20032;-81
2021/12/23 04:13:45;;;;;;;26.67;14.02;;;0.30;99.90;;;;;;5097307;28;20079;-81
2021/12/23 04:16:10;;;;;;;23.58;12.73;;;0.30;99.90;;;;;;5097336;28;20469;-81
2021/12/23 04:18:36;;;;;;;38.03;16.25;;;0.30;99.90;;;;;;5096905;28;20055;-80
2021/12/23 04:21:01;;;;;;;26.48;12.68;;;0.30;99.90;;;;;;5097201;28;20036;-80
2021/12/23 04:23:52;;;;;;;27.08;13.95;;;0.40;99.90;;;;;;5096851;28;20131;-81
2021/12/23 04:26:18;;;;;;;22.80;11.73;;;0.40;99.90;;;;;;5096982;28;20522;-80
2021/12/23 04:28:47;;;;;;;27.50;14.25;;;0.30;99.90;;;;;;5096827;28;20028;-80
2021/12/23 04:31:16;;;;;;;27.73;13.40;;;0.30;99.90;;;;;;5096843;28;20043;-80
2021/12/23 04:33:42;;;;;;;25.52;12.23;;;0.30;99.90;;;;;;5096779;28;20021;-81
2021/12/23 04:36:08;;;;;;;23.63;12.77;;;0.30;99.90;;;;;;5096710;28;20024;-80
2021/12/23 04:38:36;;;;;;;25.55;12.50;;;0.40;99.90;;;;;;5096439;28;20020;-80
2021/12/23 04:41:02;;;;;;;26.15;12.85;;;0.40;99.90;;;;;;5096586;28;20031;-80
2021/12/23 04:43:27;;;;;;;24.60;13.38;;;0.40;99.90;;;;;;5096255;28;20127;-80
2021/12/23 04:45:53;;;;;;;21.98;10.52;;;0.30;99.90;;;;;;5096456;28;20032;-80
2021/12/23 04:48:19;;;;;;;27.05;12.70;;;0.40;99.90;;;;;;5095886;28;20035;-81
2021/12/23 04:50:45;;;;;;;28.88;13.70;;;0.40;99.90;;;;;;5096065;28;20024;-81
2021/12/23 04:53:10;;;;;;;20.98;10.73;;;0.50;99.90;;;;;;5095987;28;20633;-81
2021/12/23 04:55:36;;;;;;;26.55;13.60;;;0.30;99.90;;;;;;5096254;28;20024;-81
2021/12/23 04:58:02;;;;;;;25.08;12.48;;;0.40;99.90;;;;;;5095916;28;20442;-80
2021/12/23 05:00:27;;;;;;;25.13;12.43;;;0.40;99.90;;;;;;5096082;28;20051;-81
2021/12/23 05:02:53;;;;;;;23.88;12.45;;;0.40;99.90;;;;;;5095519;28;20024;-81
2021/12/23 05:05:18;;;;;;;28.33;13.88;;;0.50;99.90;;;;;;5095497;28;20016;-81
2021/12/23 05:07:44;;;;;;;25.48;12.80;;;0.50;99.90;;;;;;5095252;28;20020;-79
2021/12/23 05:10:12;;;;;;;26.38;12.52;;;0.50;99.90;;;;;;5076877;28;20383;-79
2021/12/23 05:12:45;;;;;;;32.50;13.93;;;0.50;99.90;;;;;;5094961;28;20035;-79
2021/12/23 05:15:12;;;;;;;27.83;14.00;;;0.60;99.90;;;;;;5095515;28;20024;-80
2021/12/23 05:17:38;;;;;;;26.65;14.07;;;0.60;99.90;;;;;;5076866;28;20027;-80
2021/12/23 05:20:09;;;;;;;25.15;12.40;;;0.60;99.90;;;;;;5098078;28;20024;-78
2021/12/23 05:22:35;;;;;;;28.42;14.38;;;0.60;99.90;;;;;;5077640;28;20032;-79
2021/12/23 05:25:01;;;;;;;28.40;14.02;;;0.60;99.90;;;;;;5094814;28;20027;-79
2021/12/23 05:27:27;;;;;;;24.98;12.00;;;0.60;99.90;;;;;;5076621;28;20048;-79
2021/12/23 05:29:52;;;;;;;33.25;15.48;;;0.70;99.90;;;;;;5094620;28;20103;-79
2021/12/23 05:32:19;;;;;;;33.63;15.50;;;0.70;99.90;;;;;;5086104;28;20028;-79
2021/12/23 05:34:44;;;;;;;36.10;16.75;;;0.70;99.90;;;;;;5084624;28;20024;-79
2021/12/23 05:37:10;;;;;;;35.15;18.05;;;0.80;99.90;;;;;;5074068;28;20074;-79
2021/12/23 05:39:35;;;;;;;34.22;17.35;;;0.70;99.90;;;;;;5056217;28;20031;-80
2021/12/23 05:42:01;;;;;;;34.20;17.05;;;0.80;99.90;;;;;;5066783;28;20059;-79
2021/12/23 05:44:27;;;;;;;37.40;18.25;;;0.80;99.90;;;;;;5073849;28;20045;-79
2021/12/23 05:46:52;;;;;;;36.40;17.17;;;0.90;99.90;;;;;;5089491;28;20059;-79
2021/12/23 05:49:18;;;;;;;33.00;16.67;;;0.80;99.90;;;;;;5094253;28;20426;-79
2021/12/23 05:51:43;;;;;;;35.35;16.75;;;0.90;99.90;;;;;;5093035;28;20020;-79
2021/12/23 05:54:09;;;;;;;25.98;13.95;;;0.90;99.90;;;;;;5075830;28;20119;-79
2021/12/23 05:56:34;;;;;;;35.65;17.35;;;0.90;99.90;;;;;;5093974;28;20091;-79
2021/12/23 05:59:00;;;;;;;38.25;16.80;;;0.90;99.90;;;;;;5088006;28;20023;-80
2021/12/23 06:01:26;;;;;;;36.38;18.08;;;0.90;99.90;;;;;;5085349;28;20025;-80
2021/12/23 06:03:52;;;;;;;32.75;17.17;;;0.90;99.90;;;;;;5073829;28;20033;-80
2021/12/23 06:06:17;;;;;;;37.25;17.48;;;0.90;99.90;;;;;;5073579;28;20033;-80
2021/12/23 06:08:43;;;;;;;35.38;17.85;;;0.90;99.90;;;;;;5056437;28;20021;-80
2021/12/23 06:11:10;;;;;;;34.83;17.70;;;0.90;99.90;;;;;;5075553;28;20029;-80
2021/12/23 06:13:35;;;;;;;35.47;17.52;;;0.90;99.90;;;;;;5093842;28;20039;-80
2021/12/23 06:16:01;;;;;;;40.00;18.52;;;0.90;99.90;;;;;;5090838;28;20025;-80
2021/12/23 06:18:26;;;;;;;33.95;17.42;;;1.00;99.90;;;;;;5080666;28;20026;-80
2021/12/23 06:20:52;;;;;;;36.85;18.20;;;0.90;99.90;;;;;;5073517;28;20112;-80
2021/12/23 06:23:18;;;;;;;36.55;19.23;;;1.00;99.90;;;;;;5073433;28;20030;-80
2021/12/23 06:25:44;;;;;;;45.88;20.38;;;1.00;99.90;;;;;;5073583;28;20023;-80
2021/12/23 06:28:20;;;;;;;39.05;19.58;;;1.00;99.90;;;;;;5073587;28;20012;-80
2021/12/23 06:30:45;;;;;;;44.47;20.42;;;1.00;99.90;;;;;;5073391;28;20020;-80
2021/12/23 06:33:12;;;;;;;40.97;19.92;;;1.00;99.90;;;;;;5084438;28;20024;-80
2021/12/23 06:35:37;;;;;;;43.20;21.95;;;1.00;99.90;;;;;;5076772;28;20020;-80
2021/12/23 06:38:07;;;;;;;41.83;20.88;;;1.00;99.90;;;;;;5085436;28;20077;-80
2021/12/23 06:40:33;;;;;;;44.78;22.90;;;1.10;99.90;;;;;;5093292;28;20016;-80
2021/12/23 06:42:59;;;;;;;47.85;22.45;;;1.00;99.90;;;;;;5077856;28;20033;-80
2021/12/23 06:45:25;;;;;;;47.72;23.30;;;1.00;99.90;;;;;;5073801;28;20049;-80
2021/12/23 06:47:50;;;;;;;51.38;23.50;;;1.10;99.90;;;;;;5073236;28;20032;-80
2021/12/23 06:50:18;;;;;;;49.00;23.98;;;1.10;99.90;;;;;;5073262;28;20513;-80
2021/12/23 06:52:45;;;;;;;50.38;24.25;;;1.10;99.90;;;;;;5088712;28;20028;-80
2021/12/23 06:55:20;;;;;;;55.70;24.65;;;1.10;99.90;;;;;;5093188;28;20169;-80
2021/12/23 06:57:48;;;;;;;52.42;25.38;;;1.10;99.90;;;;;;5093470;28;20032;-80
2021/12/23 07:04:02;;;;;;;50.65;24.08;;;1.10;99.90;;;;;;5084155;28;20059;-80
2021/12/23 07:06:26;;;;;;;56.80;25.02;;;1.10;99.90;;;;;;5076998;28;20021;-80
2021/12/23 07:08:54;;;;;;;56.35;25.73;;;1.10;99.90;;;;;;5079872;28;21618;-80
2021/12/23 07:11:19;;;;;;;49.83;22.88;;;1.10;99.90;;;;;;5097096;28;20024;-80
2021/12/23 07:13:45;;;;;;;53.22;24.80;;;1.10;99.90;;;;;;5079144;28;20089;-80
2021/12/23 07:16:12;;;;;;;52.47;24.13;;;1.10;99.90;;;;;;5079166;28;20051;-80
2021/12/23 07:18:37;;;;;;;47.45;24.45;;;1.10;99.90;;;;;;5078982;28;20483;-80
2021/12/23 07:21:03;;;;;;;54.45;24.95;;;1.20;99.90;;;;;;5078882;28;20024;-80
2021/12/23 07:23:29;;;;;;;50.38;24.42;;;1.20;99.90;;;;;;5096927;28;20103;-79
2021/12/23 07:25:54;;;;;;;56.08;24.23;;;1.10;99.90;;;;;;5097006;28;20020;-82
2021/12/23 07:28:20;;;;;;;54.00;23.35;;;1.20;99.90;;;;;;5097056;28;20024;-81
2021/12/23 07:30:45;;;;;;;53.95;23.73;;;1.20;99.90;;;;;;5096934;28;20106;-81
2021/12/23 07:33:11;;;;;;;53.88;24.85;;;1.20;99.90;;;;;;5097008;28;20039;-82
2021/12/23 07:35:37;;;;;;;53.45;23.15;;;1.10;99.90;;;;;;5078489;28;20020;-81
2021/12/23 07:38:02;;;;;;;52.38;22.55;;;1.20;99.90;;;;;;5096564;28;20487;-81
2021/12/23 07:40:29;;;;;;;50.92;23.92;;;1.20;99.90;;;;;;5081641;28;20136;-82
2021/12/23 07:42:57;;;;;;;51.85;24.88;;;1.20;99.90;;;;;;5095300;28;20421;-82
2021/12/23 07:45:26;;;;;;;50.13;23.10;;;1.20;99.90;;;;;;5076473;28;20132;-82
2021/12/23 07:47:52;;;;;;;46.28;22.25;;;1.20;99.90;;;;;;5076272;28;20039;-82
2021/12/23 07:50:18;;;;;;;53.13;23.85;;;1.20;99.90;;;;;;5090234;28;20059;-82
2021/12/23 07:52:44;;;;;;;51.85;23.02;;;1.30;99.90;;;;;;5076239;28;20060;-82
2021/12/23 07:55:10;;;;;;;48.83;22.50;;;1.30;99.90;;;;;;5087744;28;20024;-82
2021/12/23 07:57:36;;;;;;;51.83;23.35;;;1.30;99.90;;;;;;5080271;28;20494;-82
2021/12/23 08:00:04;;;;;;;54.47;22.77;;;1.30;99.90;;;;;;5087795;28;20024;-82
2021/12/23 08:02:30;;;;;;;55.10;24.52;;;1.30;99.90;;;;;;5079352;28;20103;-82
2021/12/23 08:04:55;;;;;;;43.22;20.38;;;1.30;99.90;;;;;;5082175;28;20539;-82
2021/12/23 08:07:21;;;;;;;46.38;21.17;;;1.30;99.90;;;;;;5090628;28;20050;-81
2021/12/23 08:09:46;;;;;;;54.63;24.52;;;1.30;99.90;;;;;;5076309;28;20024;-82
2021/12/23 08:12:12;;;;;;;58.75;25.25;;;1.30;99.90;;;;;;5076075;28;20526;-82
2021/12/23 08:14:38;;;;;;;58.88;25.17;;;1.40;99.90;;;;;;5078727;28;20032;-82
2021/12/23 08:17:03;;;;;;;57.85;24.10;;;1.40;99.90;;;;;;5086564;28;20039;-82
2021/12/23 08:19:29;;;;;;;55.67;23.98;;;1.40;99.90;;;;;;5070839;28;20020;-82
2021/12/23 08:21:57;;;;;;;60.40;26.67;;;1.40;99.90;;;;;;5091718;28;20066;-82
2021/12/23 08:24:23;;;;;;;58.90;25.42;;;1.40;99.90;;;;;;5098185;28;20422;-81
2021/12/23 08:26:53;;;;;;;59.38;27.52;;;1.40;99.90;;;;;;5077873;28;20038;-82
2021/12/23 08:29:20;;;;;;;58.03;25.77;;;1.40;99.90;;;;;;5083828;28;20046;-82
2021/12/23 08:31:52;;;;;;;64.40;26.92;;;1.50;99.90;;;;;;5084325;28;20025;-82
2021/12/23 08:34:18;;;;;;;62.67;26.70;;;1.50;99.90;;;;;;5067975;28;20049;-82
2021/12/23 08:36:44;;;;;;;59.00;24.70;;;1.40;99.90;;;;;;5065633;28;20020;-82
2021/12/23 08:39:10;;;;;;;66.47;26.83;;;1.40;99.90;;;;;;5091834;28;20039;-82
2021/12/23 08:41:36;;;;;;;62.90;26.42;;;1.50;99.90;;;;;;5076371;28;20028;-82
2021/12/23 08:44:01;;;;;;;66.47;27.35;;;1.50;99.90;;;;;;5077870;28;20044;-80
2021/12/23 08:46:27;;;;;;;65.68;24.30;;;1.50;1.00;;;;;;5098674;28;20149;-80
2021/12/23 08:48:53;;;;;;;60.17;25.63;;;1.60;1.00;;;;;;5111776;28;20080;-80
2021/12/23 08:51:18;;;;;;;67.70;26.67;;;1.50;1.00;;;;;;5097182;28;20028;-80
2021/12/23 08:53:44;;;;;;;71.45;28.35;;;1.60;1.00;;;;;;5086003;28;20364;-80
2021/12/23 08:56:09;;;;;;;68.40;27.55;;;1.60;1.00;;;;;;5086472;28;20021;-80
2021/12/23 08:58:36;;;;;;;67.75;27.30;;;1.70;99.90;;;;;;5092231;28;20391;-80
2021/12/23 09:01:04;;;;;;;69.88;26.55;;;1.60;1.00;;;;;;5092075;28;20020;-80
2021/12/23 09:03:32;;;;;;;74.55;26.55;;;1.60;1.00;;;;;;5092102;28;20020;-80
2021/12/23 09:05:58;;;;;;;73.93;27.33;;;1.60;1.00;;;;;;5087887;28;20012;-80
2021/12/23 09:08:25;;;;;;;69.85;25.77;;;1.70;1.00;;;;;;5082509;28;20035;-80
2021/12/23 09:10:52;;;;;;;69.95;26.92;;;1.70;1.00;;;;;;5086875;28;20467;-80
2021/12/23 09:13:17;;;;;;;67.72;26.05;;;1.60;1.00;;;;;;5088778;28;20081;-80
2021/12/23 09:15:43;;;;;;;70.00;27.17;;;1.60;1.00;;;;;;5091306;28;20024;-80
2021/12/23 09:18:09;;;;;;;76.78;27.25;;;1.70;1.00;;;;;;5084112;28;20397;-80
2021/12/23 09:20:36;;;;;;;70.30;27.73;;;1.70;1.00;;;;;;5087306;28;20607;-80
2021/12/23 09:23:01;;;;;;;76.45;26.52;;;1.70;1.00;;;;;;5066159;28;20017;-80
2021/12/23 09:25:32;;;;;;;72.63;26.83;;;1.70;1.00;;;;;;5085206;28;20104;-80
2021/12/23 09:28:06;;;;;;;72.13;26.77;;;1.70;1.00;;;;;;5084274;28;20477;-81
2021/12/23 09:33:17;;;;;;;66.78;26.95;;;1.80;1.00;;;;;;5091662;28;20513;-80
2021/12/23 09:35:43;;;;;;;66.50;27.35;;;1.90;1.00;;;;;;5068430;28;20120;-80
2021/12/23 09:38:09;;;;;;;71.15;26.73;;;1.80;1.00;;;;;;5078428;28;20103;-80
2021/12/23 09:40:36;;;;;;;78.85;28.27;;;1.90;1.00;;;;;;5069217;28;20058;-80
2021/12/23 09:43:08;;;;;;;67.93;26.05;;;2.00;1.00;;;;;;5090754;28;20042;-81
2021/12/23 09:45:35;;;;;;;72.88;26.42;;;2.00;1.00;;;;;;5072527;28;20044;-81
2021/12/23 09:48:02;;;;;;;73.50;27.45;;;2.00;1.00;;;;;;5091034;28;20404;-80
2021/12/23 09:50:31;;;;;;;75.53;27.38;;;1.90;1.00;;;;;;5090589;28;20016;-80
2021/12/23 09:53:00;;;;;;;81.78;27.20;;;1.90;99.90;;;;;;5090779;28;20038;-80
2021/12/23 09:55:26;;;;;;;82.40;27.98;;;2.00;1.00;;;;;;5103447;28;20395;-80
2021/12/23 09:57:55;;;;;;;69.13;26.90;;;2.00;1.00;;;;;;5090804;28;20024;-80
2021/12/23 10:00:26;;;;;;;74.28;28.27;;;2.00;1.00;;;;;;5072635;28;20475;-80
2021/12/23 10:02:53;;;;;;;71.05;26.75;;;2.00;1.00;;;;;;5090567;28;20031;-79
2021/12/23 10:05:25;;;;;;;75.60;27.13;;;2.00;1.00;;;;;;5089067;28;20039;-80
2021/12/23 10:07:53;;;;;;;69.75;26.67;;;2.10;1.00;;;;;;5084878;28;20024;-80
2021/12/23 10:10:25;;;;;;;73.85;26.30;;;2.10;1.00;;;;;;5073748;28;20322;-79
2021/12/23 10:38:36;;;;;;;65.10;24.30;;;2.40;1.00;;;;;;5078626;28;20056;-82
2021/12/23 10:41:07;;;;;;;57.13;23.23;;;2.40;1.00;;;;;;5093096;28;20038;-82
2021/12/23 10:43:38;;;;;;;62.60;23.35;;;2.30;1.00;;;;;;5062198;28;20127;-82
2021/12/23 10:46:11;;;;;;;59.97;23.50;;;2.30;1.00;;;;;;5080766;28;20021;-82
2021/12/23 10:49:52;;;;;;;64.07;23.92;;;2.40;1.00;;;;;;5077567;28;20035;-82
2021/12/23 10:52:01;;;;;;;57.15;22.63;;;2.40;1.00;;;;;;5067537;28;20041;-82
2021/12/23 11:00:20;;;;;;;59.97;22.67;;;2.50;19.10;;;;;;5088533;28;20043;-83
2021/12/23 11:03:07;;;;;;;58.28;21.30;;;2.40;1.00;;;;;;5064259;28;20075;-82
2021/12/23 11:05:38;;;;;;;60.22;23.92;;;2.50;30.90;;;;;;5075802;28;20103;-83
2021/12/23 11:08:24;;;;;;;57.05;22.83;;;2.60;39.30;;;;;;5075385;28;20024;-83
2021/12/23 11:39:25;;;;;;;62.25;24.25;;;3.00;10.10;;;;;;5072026;28;20541;-82
2021/12/23 11:43:57;;;;;;;59.45;23.45;;;3.10;1.00;;;;;;5089130;28;20090;-82
2021/12/23 11:46:25;;;;;;;61.00;23.42;;;3.00;1.00;;;;;;5071906;28;20080;-82
2021/12/23 11:48:54;;;;;;;62.47;23.55;;;2.90;1.00;;;;;;5090882;28;20016;-82
2021/12/23 11:51:30;;;;;;;61.80;24.20;;;3.00;1.00;;;;;;5094131;28;20028;-82
2021/12/23 11:53:58;;;;;;;55.50;21.15;;;3.00;1.00;;;;;;5075983;28;20601;-82
2021/12/23 11:56:25;;;;;;;60.85;23.80;;;3.00;1.00;;;;;;5094107;28;20024;-82
2021/12/23 11:58:51;;;;;;;53.78;22.05;;;3.00;1.00;;;;;;5093582;28;20293;-82
2021/12/23 12:01:22;;;;;;;57.72;22.95;;;3.00;1.00;;;;;;5093702;28;20028;-82
2021/12/23 12:04:04;;;;;;;57.25;23.55;;;2.90;1.00;;;;;;5093311;28;20031;-82
2021/12/23 12:06:35;;;;;;;58.60;23.48;;;2.90;1.00;;;;;;5093884;28;20031;-82
2021/12/23 12:09:24;;;;;;;58.50;24.42;;;3.10;1.00;;;;;;5093660;28;20024;-82
2021/12/23 12:12:03;;;;;;;63.80;23.33;;;3.10;1.00;;;;;;5093665;28;20035;-81
2021/12/23 12:14:40;;;;;;;58.83;23.60;;;3.10;1.00;;;;;;5094151;28;20028;-82
2021/12/23 12:17:33;;;;;;;63.00;24.60;;;3.00;1.00;;;;;;5093696;28;20028;-82
2021/12/23 12:20:45;;;;;;;58.97;22.83;;;3.10;1.00;;;;;;5093116;28;20675;-82
2021/12/23 12:23:33;;;;;;;58.25;23.27;;;3.10;1.00;;;;;;5075988;28;20036;-82
2021/12/23 12:26:08;;;;;;;56.28;21.92;;;3.00;1.00;;;;;;5093876;28;20048;-82
2021/12/23 12:28:46;;;;;;;59.65;24.33;;;3.10;1.00;;;;;;5093997;28;20480;-81
2021/12/23 12:31:18;;;;;;;54.95;23.35;;;3.10;1.00;;;;;;5095772;28;20032;-82
2021/12/23 12:33:52;;;;;;;59.42;24.15;;;3.00;99.90;;;;;;5096038;28;20028;-84
2021/12/23 12:36:18;;;;;;;62.85;24.92;;;2.90;99.90;;;;;;5077777;28;20388;-83
2021/12/23 12:38:54;;;;;;;62.70;22.90;;;3.00;99.90;;;;;;5074777;28;20070;-81
2021/12/23 12:41:35;;;;;;;62.85;24.45;;;3.00;99.90;;;;;;5093286;28;20032;-81
2021/12/23 12:44:13;;;;;;;58.78;22.77;;;3.00;99.90;;;;;;5093192;28;20048;-81
2021/12/23 12:46:42;;;;;;;64.05;23.70;;;3.00;99.90;;;;;;5070471;28;20117;-81
2021/12/23 12:49:28;;;;;;;58.53;23.55;;;2.90;99.90;;;;;;5074852;28;20111;-81
2021/12/23 12:52:11;;;;;;;57.33;23.98;;;3.00;99.90;;;;;;5091113;28;20293;-80
2021/12/23 12:54:44;;;;;;;60.67;23.52;;;3.00;99.90;;;;;;5074054;28;20057;-83
2021/12/23 12:57:10;;;;;;;62.95;25.08;;;3.10;99.90;;;;;;5093179;28;20173;-82
2021/12/23 12:59:41;;;;;;;63.15;23.02;;;3.10;99.90;;;;;;5073703;28;20044;-85
2021/12/23 13:02:21;;;;;;;59.40;23.80;;;3.00;99.90;;;;;;5074479;28;20119;-85
2021/12/23 13:04:53;;;;;;;59.27;23.40;;;3.10;99.90;;;;;;5085520;28;20024;-88
2021/12/23 13:07:31;;;;;;;62.13;24.77;;;3.00;99.90;;;;;;5075282;28;20162;-87
2021/12/23 13:10:18;;;;;;;65.82;24.05;;;3.00;99.90;;;;;;5075242;28;20107;-88
2021/12/23 13:12:52;;;;;;;62.17;25.70;;;3.00;99.90;;;;;;5075305;28;20032;-88
2021/12/23 13:15:25;;;;;;;73.28;26.63;;;3.10;99.90;;;;;;5074843;28;20025;-85
2021/12/23 13:18:23;;;;;;;84.82;29.05;;;3.10;99.90;;;;;;5080927;28;20482;-80
2021/12/23 13:20:55;;;;;;;72.57;26.52;;;3.10;99.90;;;;;;5058041;28;20044;-80
2021/12/23 13:23:32;;;;;;;75.35;28.20;;;3.10;99.90;;;;;;5087219;28;20024;-80
2021/12/23 13:26:01;;;;;;;97.40;30.63;;;3.20;99.90;;;;;;5085246;28;20048;-81
2021/12/23 13:28:38;;;;;;;106.28;33.03;;;3.20;99.90;;;;;;5072763;28;20086;-80
2021/12/23 13:31:09;;;;;;;82.70;28.73;;;3.20;99.90;;;;;;5075449;28;20028;-83
2021/12/23 13:33:53;;;;;;;;;;;3.20;99.90;;;;;;5092466;28;20032;-83
2021/12/23 13:36:28;;;;;;;65.50;26.33;;;3.30;99.90;;;;;;5074114;28;19991;-83
2021/12/23 13:38:57;;;;;;;54.88;24.30;;;3.20;99.90;;;;;;5073734;28;20063;-83
2021/12/23 13:41:32;;;;;;;59.97;24.42;;;3.20;99.90;;;;;;5073793;28;20028;-81
2021/12/23 13:44:16;;;;;;;63.63;24.95;;;3.20;99.90;;;;;;5070692;28;20052;-83
2021/12/23 13:46:57;;;;;;;58.00;22.70;;;3.20;99.90;;;;;;5071186;28;20155;-83
2021/12/23 13:49:34;;;;;;;;;;;3.20;99.90;;;;;;5056408;28;20029;-80
2021/12/23 13:52:00;;;;;;;59.75;22.38;;;3.10;99.90;;;;;;5057698;28;19912;-79
2021/12/23 13:54:33;;;;;;;62.33;24.45;;;3.10;99.90;;;;;;5050415;28;20025;-80
2021/12/23 13:56:59;;;;;;;64.10;23.98;;;3.10;99.90;;;;;;5051678;28;20021;-80
2021/12/23 13:59:29;;;;;;;60.60;24.42;;;3.20;1.00;;;;;;5057875;28;20021;-79
2021/12/23 14:01:59;;;;;;;64.50;23.35;;;3.20;99.90;;;;;;5057168;28;20032;-79
2021/12/23 14:04:41;;;;;;;60.75;22.50;;;3.20;99.90;;;;;;5036526;28;20051;-80
2021/12/23 14:07:10;;;;;;;59.17;23.38;;;3.20;1.00;;;;;;5051443;28;20024;-79